sensor_id;sensor_type;location;lat;lon;timestamp;P1;durP1;ratioP1;P2;durP2;ratioP2
3791;SDS011;1911;53.768;11.474;2023-06-22T00:01:55;9.23;;;6.43;;
3791;SDS011;1911;53.768;11.474;2023-06-22T00:04:20;5.40;;;4.63;;
3791;SDS011;1911;53.768;11.474;2023-06-22T00:06:46;9.03;;;5.37;;
3791;SDS011;1911;53.768;11.474;2023-06-22T00:09:12;6.83;;;5.97;;
3791;SDS011;1911;53.768;11.474;2023-06-22T00:11:37;8.70;;;7.17;;
3791;SDS011;1911;53.768;11.474;2023-06-22T00:14:03;10.40;;;7.77;;
3791;SDS011;1911;53.768;11.474;2023-06-22T00:16:30;13.20;;;8.40;;
3791;SDS011;1911;53.768;11.474;2023-06-22T00:18:57;11.37;;;7.83;;
3791;SDS011;1911;53.768;11.474;2023-06-22T00:21:25;11.07;;;8.00;;
3791;SDS011;1911;53.768;11.474;2023-06-22T00:23:51;11.57;;;7.40;;
3791;SDS011;1911;53.768;11.474;2023-06-22T00:26:17;9.13;;;7.57;;
3791;SDS011;1911;53.768;11.474;2023-06-22T00:28:42;7.33;;;6.57;;
3791;SDS011;1911;53.768;11.474;2023-06-22T00:31:08;8.50;;;6.50;;
3791;SDS011;1911;53.768;11.474;2023-06-22T00:33:34;6.50;;;5.83;;
3791;SDS011;1911;53.768;11.474;2023-06-22T00:35:59;5.20;;;4.70;;
3791;SDS011;1911;53.768;11.474;2023-06-22T00:38:25;9.23;;;5.13;;
3791;SDS011;1911;53.768;11.474;2023-06-22T00:40:51;6.83;;;6.13;;
3791;SDS011;1911;53.768;11.474;2023-06-22T00:43:16;8.93;;;5.83;;
3791;SDS011;1911;53.768;11.474;2023-06-22T00:45:42;6.30;;;5.23;;
3791;SDS011;1911;53.768;11.474;2023-06-22T00:48:08;5.93;;;5.33;;
3791;SDS011;1911;53.768;11.474;2023-06-22T00:50:33;7.53;;;5.90;;
3791;SDS011;1911;53.768;11.474;2023-06-22T00:53:04;9.73;;;5.70;;
3791;SDS011;1911;53.768;11.474;2023-06-22T00:55:37;6.73;;;4.47;;
3791;SDS011;1911;53.768;11.474;2023-06-22T00:58:12;6.40;;;5.33;;
3791;SDS011;1911;53.768;11.474;2023-06-22T01:00:41;8.60;;;6.47;;
3791;SDS011;1911;53.768;11.474;2023-06-22T01:03:07;7.40;;;5.80;;
3791;SDS011;1911;53.768;11.474;2023-06-22T01:05:36;6.63;;;5.50;;
3791;SDS011;1911;53.768;11.474;2023-06-22T01:16:25;9.00;;;5.07;;
3791;SDS011;1911;53.768;11.474;2023-06-22T01:18:45;6.43;;;4.93;;
3791;SDS011;1911;53.768;11.474;2023-06-22T01:21:14;6.40;;;5.60;;
3791;SDS011;1911;53.768;11.474;2023-06-22T01:23:51;8.20;;;4.90;;
3791;SDS011;1911;53.768;11.474;2023-06-22T01:26:38;10.40;;;5.30;;
3791;SDS011;1911;53.768;11.474;2023-06-22T01:29:29;5.60;;;5.10;;
3791;SDS011;1911;53.768;11.474;2023-06-22T01:31:58;8.40;;;5.60;;
3791;SDS011;1911;53.768;11.474;2023-06-22T01:34:26;8.93;;;6.07;;
3791;SDS011;1911;53.768;11.474;2023-06-22T01:36:53;6.47;;;5.80;;
3791;SDS011;1911;53.768;11.474;2023-06-22T01:39:20;6.17;;;5.33;;
3791;SDS011;1911;53.768;11.474;2023-06-22T01:41:47;8.67;;;6.67;;
3791;SDS011;1911;53.768;11.474;2023-06-22T01:44:13;9.13;;;5.90;;
3791;SDS011;1911;53.768;11.474;2023-06-22T01:46:39;8.10;;;5.40;;
3791;SDS011;1911;53.768;11.474;2023-06-22T01:49:05;8.50;;;5.33;;
3791;SDS011;1911;53.768;11.474;2023-06-22T01:51:32;8.37;;;4.90;;
3791;SDS011;1911;53.768;11.474;2023-06-22T01:53:58;5.37;;;4.87;;
3791;SDS011;1911;53.768;11.474;2023-06-22T01:56:23;7.83;;;6.17;;
3791;SDS011;1911;53.768;11.474;2023-06-22T01:59:03;8.07;;;5.10;;
3791;SDS011;1911;53.768;11.474;2023-06-22T02:01:40;7.80;;;5.53;;
3791;SDS011;1911;53.768;11.474;2023-06-22T02:04:11;6.53;;;5.10;;
3791;SDS011;1911;53.768;11.474;2023-06-22T02:06:42;6.23;;;5.00;;
3791;SDS011;1911;53.768;11.474;2023-06-22T02:09:09;7.30;;;4.90;;
3791;SDS011;1911;53.768;11.474;2023-06-22T02:11:37;8.27;;;5.23;;
3791;SDS011;1911;53.768;11.474;2023-06-22T02:14:06;6.40;;;5.67;;
3791;SDS011;1911;53.768;11.474;2023-06-22T02:16:32;6.33;;;4.60;;
3791;SDS011;1911;53.768;11.474;2023-06-22T02:18:58;5.63;;;5.03;;
3791;SDS011;1911;53.768;11.474;2023-06-22T02:21:31;4.60;;;3.87;;
3791;SDS011;1911;53.768;11.474;2023-06-22T02:23:57;8.37;;;5.40;;
3791;SDS011;1911;53.768;11.474;2023-06-22T02:26:23;6.60;;;4.50;;
3791;SDS011;1911;53.768;11.474;2023-06-22T02:28:50;5.20;;;4.57;;
3791;SDS011;1911;53.768;11.474;2023-06-22T02:31:16;6.40;;;4.50;;
3791;SDS011;1911;53.768;11.474;2023-06-22T02:33:42;6.73;;;4.63;;
3791;SDS011;1911;53.768;11.474;2023-06-22T02:36:08;7.80;;;4.47;;
3791;SDS011;1911;53.768;11.474;2023-06-22T02:38:37;6.57;;;4.97;;
3791;SDS011;1911;53.768;11.474;2023-06-22T02:41:03;6.80;;;4.23;;
3791;SDS011;1911;53.768;11.474;2023-06-22T02:43:28;5.50;;;4.47;;
3791;SDS011;1911;53.768;11.474;2023-06-22T02:45:54;6.57;;;5.40;;
3791;SDS011;1911;53.768;11.474;2023-06-22T02:48:20;6.50;;;5.80;;
3791;SDS011;1911;53.768;11.474;2023-06-22T02:50:46;6.67;;;5.27;;
3791;SDS011;1911;53.768;11.474;2023-06-22T02:53:12;4.50;;;4.00;;
3791;SDS011;1911;53.768;11.474;2023-06-22T02:55:37;6.77;;;4.83;;
3791;SDS011;1911;53.768;11.474;2023-06-22T02:58:04;8.50;;;4.90;;
3791;SDS011;1911;53.768;11.474;2023-06-22T03:00:31;6.37;;;4.83;;
3791;SDS011;1911;53.768;11.474;2023-06-22T03:02:57;7.00;;;5.00;;
3791;SDS011;1911;53.768;11.474;2023-06-22T03:05:23;7.20;;;5.30;;
3791;SDS011;1911;53.768;11.474;2023-06-22T03:07:48;6.03;;;4.43;;
3791;SDS011;1911;53.768;11.474;2023-06-22T03:10:14;5.33;;;3.87;;
3791;SDS011;1911;53.768;11.474;2023-06-22T03:12:41;5.33;;;4.83;;
3791;SDS011;1911;53.768;11.474;2023-06-22T03:15:07;9.90;;;4.77;;
3791;SDS011;1911;53.768;11.474;2023-06-22T03:17:35;5.50;;;4.77;;
3791;SDS011;1911;53.768;11.474;2023-06-22T03:20:02;7.67;;;4.97;;
3791;SDS011;1911;53.768;11.474;2023-06-22T03:22:35;6.83;;;5.27;;
3791;SDS011;1911;53.768;11.474;2023-06-22T03:25:04;8.33;;;4.87;;
3791;SDS011;1911;53.768;11.474;2023-06-22T03:27:36;8.17;;;5.17;;
3791;SDS011;1911;53.768;11.474;2023-06-22T03:30:02;6.53;;;4.47;;
3791;SDS011;1911;53.768;11.474;2023-06-22T03:32:28;6.70;;;5.00;;
3791;SDS011;1911;53.768;11.474;2023-06-22T03:34:54;9.57;;;5.33;;
3791;SDS011;1911;53.768;11.474;2023-06-22T03:37:19;9.50;;;6.47;;
3791;SDS011;1911;53.768;11.474;2023-06-22T03:39:45;8.47;;;5.27;;
3791;SDS011;1911;53.768;11.474;2023-06-22T03:42:10;7.23;;;5.67;;
3791;SDS011;1911;53.768;11.474;2023-06-22T03:44:36;7.93;;;5.10;;
3791;SDS011;1911;53.768;11.474;2023-06-22T03:47:02;6.00;;;5.10;;
3791;SDS011;1911;53.768;11.474;2023-06-22T03:49:29;5.83;;;4.80;;
3791;SDS011;1911;53.768;11.474;2023-06-22T03:51:54;9.20;;;5.30;;
3791;SDS011;1911;53.768;11.474;2023-06-22T03:54:20;11.03;;;4.80;;
3791;SDS011;1911;53.768;11.474;2023-06-22T03:56:46;5.60;;;4.90;;
3791;SDS011;1911;53.768;11.474;2023-06-22T03:59:11;7.70;;;5.07;;
3791;SDS011;1911;53.768;11.474;2023-06-22T04:01:37;5.73;;;4.77;;
3791;SDS011;1911;53.768;11.474;2023-06-22T04:04:02;5.70;;;4.90;;
3791;SDS011;1911;53.768;11.474;2023-06-22T04:06:28;6.47;;;4.77;;
3791;SDS011;1911;53.768;11.474;2023-06-22T04:08:54;5.20;;;4.50;;
3791;SDS011;1911;53.768;11.474;2023-06-22T04:11:19;6.10;;;4.33;;
3791;SDS011;1911;53.768;11.474;2023-06-22T04:13:45;5.83;;;4.87;;
3791;SDS011;1911;53.768;11.474;2023-06-22T04:16:10;8.73;;;6.33;;
3791;SDS011;1911;53.768;11.474;2023-06-22T04:18:36;8.83;;;6.23;;
3791;SDS011;1911;53.768;11.474;2023-06-22T04:21:02;7.20;;;5.60;;
3791;SDS011;1911;53.768;11.474;2023-06-22T04:23:28;8.27;;;6.20;;
3791;SDS011;1911;53.768;11.474;2023-06-22T04:25:53;8.53;;;6.20;;
3791;SDS011;1911;53.768;11.474;2023-06-22T04:28:21;8.67;;;6.17;;
3791;SDS011;1911;53.768;11.474;2023-06-22T04:30:47;9.40;;;5.70;;
3791;SDS011;1911;53.768;11.474;2023-06-22T04:33:13;8.73;;;6.00;;
3791;SDS011;1911;53.768;11.474;2023-06-22T04:35:39;6.20;;;5.50;;
3791;SDS011;1911;53.768;11.474;2023-06-22T04:38:08;9.17;;;6.17;;
3791;SDS011;1911;53.768;11.474;2023-06-22T04:40:33;7.40;;;5.90;;
3791;SDS011;1911;53.768;11.474;2023-06-22T04:42:59;6.60;;;6.00;;
3791;SDS011;1911;53.768;11.474;2023-06-22T04:45:27;11.03;;;6.70;;
3791;SDS011;1911;53.768;11.474;2023-06-22T04:47:54;6.53;;;5.53;;
3791;SDS011;1911;53.768;11.474;2023-06-22T04:50:20;8.27;;;5.73;;
3791;SDS011;1911;53.768;11.474;2023-06-22T04:52:46;6.17;;;5.17;;
3791;SDS011;1911;53.768;11.474;2023-06-22T04:55:13;6.80;;;6.10;;
3791;SDS011;1911;53.768;11.474;2023-06-22T04:57:43;5.53;;;4.60;;
3791;SDS011;1911;53.768;11.474;2023-06-22T05:00:15;9.03;;;6.13;;
3791;SDS011;1911;53.768;11.474;2023-06-22T05:02:43;7.37;;;6.00;;
3791;SDS011;1911;53.768;11.474;2023-06-22T05:05:10;10.30;;;7.30;;
3791;SDS011;1911;53.768;11.474;2023-06-22T05:07:38;8.27;;;6.00;;
3791;SDS011;1911;53.768;11.474;2023-06-22T05:10:08;6.87;;;5.50;;
3791;SDS011;1911;53.768;11.474;2023-06-22T05:12:35;7.13;;;5.10;;
3791;SDS011;1911;53.768;11.474;2023-06-22T05:15:01;6.60;;;5.83;;
3791;SDS011;1911;53.768;11.474;2023-06-22T05:17:26;7.70;;;6.30;;
3791;SDS011;1911;53.768;11.474;2023-06-22T05:19:52;7.30;;;6.60;;
3791;SDS011;1911;53.768;11.474;2023-06-22T05:22:18;7.63;;;6.60;;
3791;SDS011;1911;53.768;11.474;2023-06-22T05:24:44;10.93;;;5.53;;
3791;SDS011;1911;53.768;11.474;2023-06-22T05:27:10;9.93;;;6.37;;
3791;SDS011;1911;53.768;11.474;2023-06-22T05:29:36;7.40;;;6.47;;
3791;SDS011;1911;53.768;11.474;2023-06-22T05:32:02;7.40;;;6.33;;
3791;SDS011;1911;53.768;11.474;2023-06-22T05:34:28;7.27;;;6.23;;
3791;SDS011;1911;53.768;11.474;2023-06-22T05:36:54;5.23;;;4.73;;
3791;SDS011;1911;53.768;11.474;2023-06-22T05:39:19;8.63;;;5.70;;
3791;SDS011;1911;53.768;11.474;2023-06-22T05:41:45;8.50;;;5.83;;
3791;SDS011;1911;53.768;11.474;2023-06-22T05:44:11;5.90;;;4.70;;
3791;SDS011;1911;53.768;11.474;2023-06-22T05:46:39;5.87;;;5.00;;
3791;SDS011;1911;53.768;11.474;2023-06-22T05:49:09;6.63;;;5.20;;
3791;SDS011;1911;53.768;11.474;2023-06-22T05:51:35;6.67;;;5.27;;
3791;SDS011;1911;53.768;11.474;2023-06-22T05:54:01;5.27;;;4.70;;
3791;SDS011;1911;53.768;11.474;2023-06-22T05:56:26;9.13;;;4.70;;
3791;SDS011;1911;53.768;11.474;2023-06-22T05:58:53;6.53;;;5.27;;
3791;SDS011;1911;53.768;11.474;2023-06-22T06:01:18;7.73;;;5.27;;
3791;SDS011;1911;53.768;11.474;2023-06-22T06:03:44;5.67;;;5.03;;
3791;SDS011;1911;53.768;11.474;2023-06-22T06:06:09;6.73;;;4.17;;
3791;SDS011;1911;53.768;11.474;2023-06-22T06:08:36;5.70;;;4.40;;
3791;SDS011;1911;53.768;11.474;2023-06-22T06:11:05;4.23;;;3.30;;
3791;SDS011;1911;53.768;11.474;2023-06-22T06:13:30;5.47;;;3.97;;
3791;SDS011;1911;53.768;11.474;2023-06-22T06:15:56;4.70;;;3.70;;
3791;SDS011;1911;53.768;11.474;2023-06-22T06:18:22;5.63;;;4.10;;
3791;SDS011;1911;53.768;11.474;2023-06-22T06:20:48;4.80;;;4.10;;
3791;SDS011;1911;53.768;11.474;2023-06-22T06:23:13;4.57;;;4.07;;
3791;SDS011;1911;53.768;11.474;2023-06-22T06:25:39;4.37;;;3.80;;
3791;SDS011;1911;53.768;11.474;2023-06-22T06:28:04;4.27;;;3.10;;
3791;SDS011;1911;53.768;11.474;2023-06-22T06:30:30;4.87;;;4.37;;
3791;SDS011;1911;53.768;11.474;2023-06-22T06:32:56;4.27;;;3.20;;
3791;SDS011;1911;53.768;11.474;2023-06-22T06:35:21;3.00;;;2.60;;
3791;SDS011;1911;53.768;11.474;2023-06-22T06:37:48;4.80;;;2.70;;
3791;SDS011;1911;53.768;11.474;2023-06-22T06:40:16;4.77;;;3.37;;
3791;SDS011;1911;53.768;11.474;2023-06-22T06:42:43;5.27;;;2.87;;
3791;SDS011;1911;53.768;11.474;2023-06-22T06:45:17;6.30;;;3.23;;
3791;SDS011;1911;53.768;11.474;2023-06-22T06:47:44;2.87;;;2.63;;
3791;SDS011;1911;53.768;11.474;2023-06-22T06:50:11;6.63;;;4.43;;
3791;SDS011;1911;53.768;11.474;2023-06-22T06:52:37;4.83;;;3.10;;
3791;SDS011;1911;53.768;11.474;2023-06-22T06:55:02;2.90;;;2.53;;
3791;SDS011;1911;53.768;11.474;2023-06-22T06:57:39;4.73;;;4.10;;
3791;SDS011;1911;53.768;11.474;2023-06-22T07:00:11;5.40;;;4.50;;
3791;SDS011;1911;53.768;11.474;2023-06-22T07:02:42;5.43;;;3.27;;
3791;SDS011;1911;53.768;11.474;2023-06-22T07:05:09;5.50;;;3.80;;
3791;SDS011;1911;53.768;11.474;2023-06-22T07:07:35;4.00;;;3.40;;
3791;SDS011;1911;53.768;11.474;2023-06-22T07:10:01;4.60;;;3.30;;
3791;SDS011;1911;53.768;11.474;2023-06-22T07:12:28;4.60;;;3.40;;
3791;SDS011;1911;53.768;11.474;2023-06-22T07:15:01;4.17;;;3.63;;
3791;SDS011;1911;53.768;11.474;2023-06-22T07:17:27;4.67;;;3.83;;
3791;SDS011;1911;53.768;11.474;2023-06-22T07:19:53;4.40;;;3.50;;
3791;SDS011;1911;53.768;11.474;2023-06-22T07:22:18;5.10;;;4.23;;
3791;SDS011;1911;53.768;11.474;2023-06-22T07:24:44;6.67;;;3.97;;
3791;SDS011;1911;53.768;11.474;2023-06-22T07:27:09;4.97;;;4.07;;
3791;SDS011;1911;53.768;11.474;2023-06-22T07:29:37;4.57;;;4.10;;
3791;SDS011;1911;53.768;11.474;2023-06-22T07:32:05;7.27;;;4.43;;
3791;SDS011;1911;53.768;11.474;2023-06-22T07:34:32;4.93;;;4.00;;
3791;SDS011;1911;53.768;11.474;2023-06-22T07:36:58;4.60;;;4.03;;
3791;SDS011;1911;53.768;11.474;2023-06-22T07:39:24;5.37;;;4.37;;
3791;SDS011;1911;53.768;11.474;2023-06-22T07:41:50;5.57;;;4.57;;
3791;SDS011;1911;53.768;11.474;2023-06-22T07:44:16;4.93;;;3.83;;
3791;SDS011;1911;53.768;11.474;2023-06-22T07:46:42;6.70;;;4.73;;
3791;SDS011;1911;53.768;11.474;2023-06-22T07:49:07;4.70;;;4.20;;
3791;SDS011;1911;53.768;11.474;2023-06-22T07:51:33;5.73;;;5.17;;
3791;SDS011;1911;53.768;11.474;2023-06-22T07:53:59;5.60;;;4.97;;
3791;SDS011;1911;53.768;11.474;2023-06-22T07:56:25;7.10;;;5.90;;
3791;SDS011;1911;53.768;11.474;2023-06-22T07:58:50;7.83;;;5.77;;
3791;SDS011;1911;53.768;11.474;2023-06-22T08:01:16;7.80;;;5.20;;
3791;SDS011;1911;53.768;11.474;2023-06-22T08:03:44;8.20;;;5.80;;
3791;SDS011;1911;53.768;11.474;2023-06-22T08:06:10;6.23;;;5.47;;
3791;SDS011;1911;53.768;11.474;2023-06-22T08:08:36;6.50;;;4.77;;
3791;SDS011;1911;53.768;11.474;2023-06-22T08:11:01;5.40;;;4.90;;
3791;SDS011;1911;53.768;11.474;2023-06-22T08:13:27;7.20;;;4.97;;
3791;SDS011;1911;53.768;11.474;2023-06-22T08:15:53;7.43;;;4.60;;
3791;SDS011;1911;53.768;11.474;2023-06-22T08:18:18;5.80;;;4.90;;
3791;SDS011;1911;53.768;11.474;2023-06-22T08:20:44;5.27;;;4.77;;
3791;SDS011;1911;53.768;11.474;2023-06-22T08:23:10;5.20;;;4.70;;
3791;SDS011;1911;53.768;11.474;2023-06-22T08:25:35;4.20;;;3.80;;
3791;SDS011;1911;53.768;11.474;2023-06-22T08:28:02;4.80;;;3.40;;
3791;SDS011;1911;53.768;11.474;2023-06-22T08:30:28;4.70;;;4.00;;
3791;SDS011;1911;53.768;11.474;2023-06-22T08:32:54;4.90;;;3.50;;
3791;SDS011;1911;53.768;11.474;2023-06-22T08:35:20;4.60;;;3.57;;
3791;SDS011;1911;53.768;11.474;2023-06-22T08:37:47;5.43;;;3.70;;
3791;SDS011;1911;53.768;11.474;2023-06-22T08:40:17;5.80;;;3.50;;
3791;SDS011;1911;53.768;11.474;2023-06-22T08:42:44;4.30;;;2.53;;
3791;SDS011;1911;53.768;11.474;2023-06-22T08:45:10;4.00;;;2.47;;
3791;SDS011;1911;53.768;11.474;2023-06-22T08:47:36;3.93;;;2.80;;
3791;SDS011;1911;53.768;11.474;2023-06-22T08:50:02;2.47;;;1.97;;
3791;SDS011;1911;53.768;11.474;2023-06-22T08:52:28;4.87;;;2.40;;
3791;SDS011;1911;53.768;11.474;2023-06-22T08:54:54;3.30;;;2.47;;
3791;SDS011;1911;53.768;11.474;2023-06-22T08:57:20;3.20;;;2.17;;
3791;SDS011;1911;53.768;11.474;2023-06-22T08:59:46;3.93;;;2.50;;
3791;SDS011;1911;53.768;11.474;2023-06-22T09:02:12;4.47;;;2.63;;
3791;SDS011;1911;53.768;11.474;2023-06-22T09:04:37;5.60;;;2.70;;
3791;SDS011;1911;53.768;11.474;2023-06-22T09:07:03;3.53;;;2.77;;
3791;SDS011;1911;53.768;11.474;2023-06-22T09:09:29;2.50;;;2.23;;
3791;SDS011;1911;53.768;11.474;2023-06-22T09:11:54;5.83;;;2.90;;
3791;SDS011;1911;53.768;11.474;2023-06-22T09:14:20;2.90;;;2.30;;
3791;SDS011;1911;53.768;11.474;2023-06-22T09:16:46;3.30;;;2.70;;
3791;SDS011;1911;53.768;11.474;2023-06-22T09:19:11;2.63;;;2.27;;
3791;SDS011;1911;53.768;11.474;2023-06-22T09:21:37;3.40;;;2.03;;
3791;SDS011;1911;53.768;11.474;2023-06-22T09:24:03;3.73;;;2.30;;
3791;SDS011;1911;53.768;11.474;2023-06-22T09:26:29;3.13;;;2.17;;
3791;SDS011;1911;53.768;11.474;2023-06-22T09:28:55;3.63;;;2.63;;
3791;SDS011;1911;53.768;11.474;2023-06-22T09:31:20;3.30;;;2.80;;
3791;SDS011;1911;53.768;11.474;2023-06-22T09:33:52;3.90;;;2.80;;
3791;SDS011;1911;53.768;11.474;2023-06-22T09:36:19;3.90;;;2.90;;
3791;SDS011;1911;53.768;11.474;2023-06-22T09:38:45;2.83;;;2.33;;
3791;SDS011;1911;53.768;11.474;2023-06-22T09:41:11;3.13;;;2.60;;
3791;SDS011;1911;53.768;11.474;2023-06-22T09:43:36;3.97;;;2.77;;
3791;SDS011;1911;53.768;11.474;2023-06-22T09:46:02;3.53;;;2.57;;
3791;SDS011;1911;53.768;11.474;2023-06-22T09:48:28;5.23;;;3.30;;
3791;SDS011;1911;53.768;11.474;2023-06-22T09:50:55;4.10;;;3.20;;
3791;SDS011;1911;53.768;11.474;2023-06-22T09:53:21;4.10;;;3.00;;
3791;SDS011;1911;53.768;11.474;2023-06-22T09:55:46;3.20;;;2.80;;
3791;SDS011;1911;53.768;11.474;2023-06-22T09:58:12;2.50;;;2.30;;
3791;SDS011;1911;53.768;11.474;2023-06-22T10:00:38;6.10;;;2.97;;
3791;SDS011;1911;53.768;11.474;2023-06-22T10:03:03;3.13;;;2.67;;
3791;SDS011;1911;53.768;11.474;2023-06-22T10:05:29;3.10;;;2.33;;
3791;SDS011;1911;53.768;11.474;2023-06-22T10:07:54;4.40;;;2.90;;
3791;SDS011;1911;53.768;11.474;2023-06-22T10:10:20;5.23;;;3.20;;
3791;SDS011;1911;53.768;11.474;2023-06-22T10:12:46;3.97;;;3.43;;
3791;SDS011;1911;53.768;11.474;2023-06-22T10:15:13;3.10;;;2.80;;
3791;SDS011;1911;53.768;11.474;2023-06-22T10:17:39;4.90;;;3.67;;
3791;SDS011;1911;53.768;11.474;2023-06-22T10:20:05;3.43;;;3.00;;
3791;SDS011;1911;53.768;11.474;2023-06-22T10:22:38;3.77;;;3.23;;
3791;SDS011;1911;53.768;11.474;2023-06-22T10:25:08;4.10;;;2.90;;
3791;SDS011;1911;53.768;11.474;2023-06-22T10:27:35;4.00;;;3.17;;
3791;SDS011;1911;53.768;11.474;2023-06-22T10:30:01;5.23;;;3.70;;
3791;SDS011;1911;53.768;11.474;2023-06-22T10:32:27;3.90;;;3.20;;
3791;SDS011;1911;53.768;11.474;2023-06-22T10:34:55;3.97;;;3.00;;
3791;SDS011;1911;53.768;11.474;2023-06-22T10:37:21;3.93;;;3.10;;
3791;SDS011;1911;53.768;11.474;2023-06-22T10:39:47;5.40;;;3.70;;
3791;SDS011;1911;53.768;11.474;2023-06-22T10:42:13;3.80;;;3.20;;
3791;SDS011;1911;53.768;11.474;2023-06-22T10:44:39;5.10;;;3.37;;
3791;SDS011;1911;53.768;11.474;2023-06-22T10:47:06;3.50;;;3.07;;
3791;SDS011;1911;53.768;11.474;2023-06-22T10:49:32;4.27;;;3.60;;
3791;SDS011;1911;53.768;11.474;2023-06-22T10:51:57;3.67;;;3.00;;
3791;SDS011;1911;53.768;11.474;2023-06-22T10:54:23;5.17;;;3.80;;
3791;SDS011;1911;53.768;11.474;2023-06-22T10:56:48;4.40;;;3.40;;
3791;SDS011;1911;53.768;11.474;2023-06-22T10:59:14;3.90;;;3.27;;
3791;SDS011;1911;53.768;11.474;2023-06-22T11:01:40;4.60;;;3.73;;
3791;SDS011;1911;53.768;11.474;2023-06-22T11:04:05;7.63;;;3.60;;
3791;SDS011;1911;53.768;11.474;2023-06-22T11:06:31;4.73;;;3.33;;
3791;SDS011;1911;53.768;11.474;2023-06-22T11:08:56;3.83;;;3.40;;
3791;SDS011;1911;53.768;11.474;2023-06-22T11:11:23;5.43;;;2.63;;
3791;SDS011;1911;53.768;11.474;2023-06-22T11:13:50;5.43;;;4.20;;
3791;SDS011;1911;53.768;11.474;2023-06-22T11:16:16;4.17;;;2.97;;
3791;SDS011;1911;53.768;11.474;2023-06-22T11:18:41;5.80;;;3.83;;
3791;SDS011;1911;53.768;11.474;2023-06-22T11:21:07;8.83;;;3.43;;
3791;SDS011;1911;53.768;11.474;2023-06-22T11:23:32;8.30;;;3.20;;
3791;SDS011;1911;53.768;11.474;2023-06-22T11:25:58;3.43;;;3.03;;
3791;SDS011;1911;53.768;11.474;2023-06-22T11:28:23;4.93;;;3.47;;
3791;SDS011;1911;53.768;11.474;2023-06-22T11:30:49;5.20;;;4.40;;
3791;SDS011;1911;53.768;11.474;2023-06-22T11:33:15;4.73;;;3.20;;
3791;SDS011;1911;53.768;11.474;2023-06-22T11:35:40;6.63;;;3.20;;
3791;SDS011;1911;53.768;11.474;2023-06-22T11:38:06;9.70;;;3.73;;
3791;SDS011;1911;53.768;11.474;2023-06-22T11:40:32;4.30;;;3.90;;
3791;SDS011;1911;53.768;11.474;2023-06-22T11:43:01;5.30;;;4.40;;
3791;SDS011;1911;53.768;11.474;2023-06-22T11:45:26;5.73;;;3.43;;
3791;SDS011;1911;53.768;11.474;2023-06-22T11:47:52;14.50;;;5.23;;
3791;SDS011;1911;53.768;11.474;2023-06-22T11:50:17;3.80;;;3.40;;
3791;SDS011;1911;53.768;11.474;2023-06-22T11:52:43;6.70;;;3.97;;
3791;SDS011;1911;53.768;11.474;2023-06-22T11:55:09;6.10;;;4.17;;
3791;SDS011;1911;53.768;11.474;2023-06-22T11:57:35;4.30;;;3.57;;
3791;SDS011;1911;53.768;11.474;2023-06-22T12:00:02;5.13;;;3.50;;
3791;SDS011;1911;53.768;11.474;2023-06-22T12:02:39;4.30;;;3.90;;
3791;SDS011;1911;53.768;11.474;2023-06-22T12:05:04;4.13;;;3.67;;
3791;SDS011;1911;53.768;11.474;2023-06-22T12:07:30;5.10;;;3.47;;
3791;SDS011;1911;53.768;11.474;2023-06-22T12:09:56;5.17;;;4.30;;
3791;SDS011;1911;53.768;11.474;2023-06-22T12:12:21;5.00;;;4.50;;
3791;SDS011;1911;53.768;11.474;2023-06-22T12:14:47;5.43;;;3.37;;
3791;SDS011;1911;53.768;11.474;2023-06-22T12:17:12;4.27;;;3.87;;
3791;SDS011;1911;53.768;11.474;2023-06-22T12:19:38;4.50;;;3.47;;
3791;SDS011;1911;53.768;11.474;2023-06-22T12:22:04;6.13;;;3.60;;
3791;SDS011;1911;53.768;11.474;2023-06-22T12:24:29;4.30;;;3.50;;
3791;SDS011;1911;53.768;11.474;2023-06-22T12:26:55;5.73;;;4.00;;
3791;SDS011;1911;53.768;11.474;2023-06-22T12:29:20;4.70;;;4.10;;
3791;SDS011;1911;53.768;11.474;2023-06-22T12:31:46;5.00;;;4.40;;
3791;SDS011;1911;53.768;11.474;2023-06-22T12:34:12;5.20;;;4.33;;
3791;SDS011;1911;53.768;11.474;2023-06-22T12:36:37;5.47;;;4.30;;
3791;SDS011;1911;53.768;11.474;2023-06-22T12:39:03;4.87;;;4.47;;
3791;SDS011;1911;53.768;11.474;2023-06-22T12:41:28;5.60;;;4.20;;
3791;SDS011;1911;53.768;11.474;2023-06-22T12:43:54;4.97;;;3.93;;
3791;SDS011;1911;53.768;11.474;2023-06-22T12:46:19;5.17;;;4.50;;
3791;SDS011;1911;53.768;11.474;2023-06-22T12:48:45;6.30;;;4.53;;
3791;SDS011;1911;53.768;11.474;2023-06-22T12:51:10;4.50;;;4.10;;
3791;SDS011;1911;53.768;11.474;2023-06-22T12:53:36;3.90;;;3.50;;
3791;SDS011;1911;53.768;11.474;2023-06-22T12:56:02;7.77;;;4.67;;
3791;SDS011;1911;53.768;11.474;2023-06-22T12:58:27;5.10;;;4.37;;
3791;SDS011;1911;53.768;11.474;2023-06-22T13:00:53;4.93;;;4.17;;
3791;SDS011;1911;53.768;11.474;2023-06-22T13:03:18;6.30;;;3.60;;
3791;SDS011;1911;53.768;11.474;2023-06-22T13:05:44;4.03;;;3.60;;
3791;SDS011;1911;53.768;11.474;2023-06-22T13:08:10;4.53;;;3.40;;
3791;SDS011;1911;53.768;11.474;2023-06-22T13:10:36;5.10;;;3.80;;
3791;SDS011;1911;53.768;11.474;2023-06-22T13:13:02;3.63;;;3.30;;
3791;SDS011;1911;53.768;11.474;2023-06-22T13:15:28;3.50;;;2.97;;
3791;SDS011;1911;53.768;11.474;2023-06-22T13:17:54;4.33;;;3.80;;
3791;SDS011;1911;53.768;11.474;2023-06-22T13:20:20;4.70;;;3.77;;
3791;SDS011;1911;53.768;11.474;2023-06-22T13:22:45;3.20;;;2.77;;
3791;SDS011;1911;53.768;11.474;2023-06-22T13:25:11;3.13;;;2.70;;
3791;SDS011;1911;53.768;11.474;2023-06-22T13:27:38;3.27;;;2.53;;
3791;SDS011;1911;53.768;11.474;2023-06-22T13:30:04;4.17;;;2.80;;
3791;SDS011;1911;53.768;11.474;2023-06-22T13:32:30;5.70;;;3.07;;
3791;SDS011;1911;53.768;11.474;2023-06-22T13:34:56;4.20;;;2.70;;
3791;SDS011;1911;53.768;11.474;2023-06-22T13:37:21;4.53;;;3.60;;
3791;SDS011;1911;53.768;11.474;2023-06-22T13:39:47;3.27;;;2.67;;
3791;SDS011;1911;53.768;11.474;2023-06-22T13:42:14;4.57;;;2.87;;
3791;SDS011;1911;53.768;11.474;2023-06-22T13:44:39;4.63;;;3.27;;
3791;SDS011;1911;53.768;11.474;2023-06-22T13:47:05;3.73;;;3.10;;
3791;SDS011;1911;53.768;11.474;2023-06-22T13:49:31;4.00;;;2.50;;
3791;SDS011;1911;53.768;11.474;2023-06-22T13:51:57;4.27;;;2.33;;
3791;SDS011;1911;53.768;11.474;2023-06-22T13:54:22;4.83;;;3.17;;
3791;SDS011;1911;53.768;11.474;2023-06-22T13:56:48;3.50;;;3.20;;
3791;SDS011;1911;53.768;11.474;2023-06-22T13:59:14;4.40;;;3.50;;
3791;SDS011;1911;53.768;11.474;2023-06-22T14:01:40;4.93;;;3.57;;
3791;SDS011;1911;53.768;11.474;2023-06-22T14:04:06;5.33;;;3.50;;
3791;SDS011;1911;53.768;11.474;2023-06-22T14:06:32;8.03;;;4.17;;
3791;SDS011;1911;53.768;11.474;2023-06-22T14:08:57;3.90;;;3.23;;
3791;SDS011;1911;53.768;11.474;2023-06-22T14:11:24;3.53;;;3.20;;
3791;SDS011;1911;53.768;11.474;2023-06-22T14:13:50;5.27;;;3.53;;
3791;SDS011;1911;53.768;11.474;2023-06-22T14:16:15;3.90;;;3.40;;
3791;SDS011;1911;53.768;11.474;2023-06-22T14:18:41;7.03;;;3.80;;
3791;SDS011;1911;53.768;11.474;2023-06-22T14:21:07;5.23;;;3.33;;
3791;SDS011;1911;53.768;11.474;2023-06-22T14:23:33;4.73;;;2.27;;
3791;SDS011;1911;53.768;11.474;2023-06-22T14:25:58;5.50;;;3.30;;
3791;SDS011;1911;53.768;11.474;2023-06-22T14:28:24;3.77;;;2.60;;
3791;SDS011;1911;53.768;11.474;2023-06-22T14:30:50;3.10;;;2.70;;
3791;SDS011;1911;53.768;11.474;2023-06-22T14:33:15;4.67;;;2.40;;
3791;SDS011;1911;53.768;11.474;2023-06-22T14:35:41;6.10;;;2.80;;
3791;SDS011;1911;53.768;11.474;2023-06-22T14:38:06;4.80;;;2.57;;
3791;SDS011;1911;53.768;11.474;2023-06-22T14:40:32;3.27;;;2.77;;
3791;SDS011;1911;53.768;11.474;2023-06-22T14:42:57;3.60;;;2.50;;
3791;SDS011;1911;53.768;11.474;2023-06-22T14:45:26;3.50;;;2.80;;
3791;SDS011;1911;53.768;11.474;2023-06-22T14:47:52;3.40;;;3.00;;
3791;SDS011;1911;53.768;11.474;2023-06-22T14:50:17;7.70;;;3.80;;
3791;SDS011;1911;53.768;11.474;2023-06-22T14:52:43;3.90;;;2.80;;
3791;SDS011;1911;53.768;11.474;2023-06-22T14:55:09;7.20;;;4.30;;
3791;SDS011;1911;53.768;11.474;2023-06-22T14:57:34;5.70;;;4.10;;
3791;SDS011;1911;53.768;11.474;2023-06-22T15:00:00;5.43;;;4.87;;
3791;SDS011;1911;53.768;11.474;2023-06-22T15:02:27;6.37;;;4.43;;
3791;SDS011;1911;53.768;11.474;2023-06-22T15:04:52;5.47;;;4.40;;